Time;durP1;ratioP1;P1;durP2;ratioP2;P2;SDS_P1;SDS_P2;PMS_P1;PMS_P2;Temp;Humidity;BMP_temperature;BMP_pressure;BME280_temperature;BME280_humidity;BME280_pressure;Samples;Min_cycle;Max_cycle;Signal;HPM_P1;HPM_P2
2023/06/07 00:01:42;;;;;;;4.72;2.88;;;21.20;41.30;;;;;;5012991;28;20528;-57
2023/06/07 00:04:11;;;;;;;5.63;2.60;;;21.20;41.30;;;;;;5016949;28;20442;-57
2023/06/07 00:06:40;;;;;;;2.92;2.33;;;21.20;41.50;;;;;;5019148;28;20061;-55
2023/06/07 00:09:08;;;;;;;5.25;2.80;;;21.20;41.60;;;;;;5017227;28;20061;-58
2023/06/07 00:11:35;;;;;;;5.65;2.88;;;21.10;41.70;;;;;;5018263;28;20057;-57
2023/06/07 00:14:03;;;;;;;4.32;2.63;;;21.10;41.60;;;;;;5014081;28;20057;-57
2023/06/07 00:16:30;;;;;;;3.88;2.53;;;21.10;41.70;;;;;;5012393;28;20060;-57
2023/06/07 00:18:57;;;;;;;4.80;2.78;;;21.00;41.80;;;;;;5017478;28;20053;-57
2023/06/07 00:21:27;;;;;;;5.50;3.10;;;21.00;42.00;;;;;;5015381;28;20049;-57
2023/06/07 00:23:55;;;;;;;7.15;3.28;;;21.00;41.70;;;;;;5017215;28;20061;-56
2023/06/07 00:26:22;;;;;;;5.82;3.00;;;20.90;42.00;;;;;;5016044;28;20409;-57
2023/06/07 00:28:50;;;;;;;4.25;3.00;;;20.80;42.20;;;;;;5012607;28;20083;-58
2023/06/07 00:31:17;;;;;;;5.45;2.90;;;20.70;42.00;;;;;;5014612;28;20053;-57
2023/06/07 00:33:44;;;;;;;5.57;3.28;;;20.60;41.90;;;;;;5017801;28;20064;-57
2023/06/07 00:36:11;;;;;;;4.28;2.88;;;20.50;42.00;;;;;;5014550;28;20049;-57
2023/06/07 00:38:38;;;;;;;4.88;2.88;;;20.50;42.00;;;;;;5016107;28;20057;-57
2023/06/07 00:41:07;;;;;;;5.18;2.67;;;20.40;42.10;;;;;;5014330;28;20061;-57
2023/06/07 00:43:34;;;;;;;4.38;3.03;;;20.30;42.20;;;;;;5009688;28;20060;-57
2023/06/07 00:46:02;;;;;;;6.20;3.20;;;20.30;42.20;;;;;;5016401;28;20091;-57
2023/06/07 00:48:29;;;;;;;4.53;2.63;;;20.30;42.20;;;;;;5013633;28;20053;-58
2023/06/07 00:50:56;;;;;;;8.60;3.08;;;20.30;42.50;;;;;;5014196;28;20402;-57
2023/06/07 00:53:24;;;;;;;6.63;3.10;;;20.30;42.60;;;;;;5008116;28;20060;-57
2023/06/07 00:55:51;;;;;;;3.47;2.60;;;20.30;42.60;;;;;;5010718;28;20448;-57
2023/06/07 00:58:21;;;;;;;4.55;3.00;;;20.20;42.60;;;;;;5016675;28;20046;-57
2023/06/07 01:00:50;;;;;;;4.00;2.90;;;20.20;42.80;;;;;;5017190;28;20045;-55
2023/06/07 01:03:17;;;;;;;5.32;3.10;;;20.20;42.80;;;;;;5037520;23;20053;-53
2023/06/07 01:05:45;;;;;;;3.92;2.70;;;20.30;42.80;;;;;;5015522;28;20061;-47
2023/06/07 01:08:12;;;;;;;4.30;2.92;;;20.30;42.90;;;;;;5009666;28;20053;-43
2023/06/07 01:10:39;;;;;;;3.97;2.67;;;20.20;42.90;;;;;;5018034;28;20501;-45
2023/06/07 01:13:09;;;;;;;5.13;3.15;;;20.20;42.90;;;;;;5018059;28;20055;-48
2023/06/07 01:15:39;;;;;;;4.22;2.83;;;20.20;43.20;;;;;;5013999;28;20420;-47
2023/06/07 01:18:09;;;;;;;5.43;3.25;;;20.20;43.10;;;;;;5015397;28;20057;-47
2023/06/07 01:20:39;;;;;;;5.10;2.83;;;20.20;43.00;;;;;;5008384;28;20057;-48
2023/06/07 01:23:11;;;;;;;4.43;2.70;;;20.20;43.10;;;;;;5005290;28;20049;-49
2023/06/07 01:25:39;;;;;;;3.55;2.72;;;20.20;43.20;;;;;;5018009;28;20401;-46
2023/06/07 01:28:07;;;;;;;5.07;2.88;;;20.20;43.40;;;;;;5020415;28;20060;-46
2023/06/07 01:30:35;;;;;;;3.90;2.70;;;20.20;43.60;;;;;;5020479;28;20075;-46
2023/06/07 01:33:05;;;;;;;5.05;3.08;;;20.20;43.70;;;;;;5014950;28;20060;-47
2023/06/07 01:35:34;;;;;;;8.13;2.67;;;20.20;43.60;;;;;;5017553;28;20049;-50
2023/06/07 01:38:02;;;;;;;5.82;2.97;;;20.20;43.70;;;;;;5019503;28;20060;-43
2023/06/07 01:40:30;;;;;;;4.63;2.83;;;20.20;43.60;;;;;;5019852;28;20057;-45
2023/06/07 01:43:00;;;;;;;3.67;2.65;;;20.20;43.50;;;;;;5023094;28;20084;-46
2023/06/07 01:45:28;;;;;;;5.50;2.95;;;20.20;43.50;;;;;;5022299;28;20053;-45
2023/06/07 01:47:55;;;;;;;5.13;3.28;;;20.10;43.30;;;;;;5013133;28;20064;-47
2023/06/07 01:50:22;;;;;;;6.05;3.10;;;20.20;43.30;;;;;;5020231;28;22263;-47
2023/06/07 01:52:50;;;;;;;3.30;2.60;;;20.10;43.30;;;;;;5017978;28;20056;-46
2023/06/07 01:55:18;;;;;;;5.35;3.15;;;20.10;43.40;;;;;;5021787;28;20524;-49
2023/06/07 01:57:53;;;;;;;6.70;2.80;;;20.10;43.50;;;;;;5018587;28;20064;-47
2023/06/07 02:00:26;;;;;;;4.82;2.60;;;20.10;43.60;;;;;;5020649;28;20054;-46
2023/06/07 02:02:57;;;;;;;4.32;2.65;;;20.10;43.90;;;;;;5011041;28;20057;-50
2023/06/07 02:05:29;;;;;;;4.85;2.70;;;20.10;43.90;;;;;;5017866;28;20057;-48
2023/06/07 02:08:01;;;;;;;3.33;2.33;;;20.10;43.80;;;;;;5019213;28;20053;-46
2023/06/07 02:10:30;;;;;;;4.50;2.97;;;20.10;43.90;;;;;;5014849;28;20061;-46
2023/06/07 02:12:59;;;;;;;5.32;3.50;;;20.10;44.30;;;;;;5019398;28;20052;-47
2023/06/07 02:15:28;;;;;;;7.53;3.78;;;20.10;44.00;;;;;;5018336;28;20069;-48
2023/06/07 02:17:58;;;;;;;3.78;2.90;;;20.10;44.40;;;;;;5018645;28;20060;-47
2023/06/07 02:20:26;;;;;;;3.50;2.50;;;20.10;44.50;;;;;;5018693;28;20448;-48
2023/06/07 02:22:53;;;;;;;4.05;2.83;;;20.10;45.00;;;;;;5018241;28;20053;-45
2023/06/07 02:25:21;;;;;;;6.25;3.17;;;20.10;44.40;;;;;;4991236;28;20068;-47
2023/06/07 02:27:49;;;;;;;3.92;2.85;;;20.10;44.50;;;;;;5018202;28;20084;-47
2023/06/07 02:30:17;;;;;;;3.85;2.75;;;20.00;44.50;;;;;;5018841;28;20057;-49
2023/06/07 02:32:48;;;;;;;3.65;2.67;;;20.00;44.40;;;;;;5016093;28;20053;-47
2023/06/07 02:35:16;;;;;;;4.53;2.90;;;20.00;44.40;;;;;;5020660;28;20061;-50
2023/06/07 02:37:44;;;;;;;3.38;2.55;;;20.00;44.50;;;;;;5017930;28;20240;-46
2023/06/07 02:40:13;;;;;;;3.97;2.78;;;20.00;44.50;;;;;;5016079;28;20060;-49
2023/06/07 02:42:44;;;;;;;5.38;2.95;;;20.00;44.40;;;;;;5019581;28;20084;-45
2023/06/07 02:45:12;;;;;;;5.07;3.28;;;20.00;44.30;;;;;;5015071;28;20053;-43
2023/06/07 02:47:39;;;;;;;6.60;3.05;;;20.00;44.20;;;;;;5018844;28;20062;-47
2023/06/07 02:50:09;;;;;;;4.85;2.78;;;20.00;44.00;;;;;;5015906;28;20054;-47
2023/06/07 02:52:36;;;;;;;4.57;2.78;;;20.00;43.90;;;;;;4996165;28;20061;-47
2023/06/07 02:55:04;;;;;;;5.43;3.38;;;20.00;43.80;;;;;;5007915;28;20060;-45
2023/06/07 02:57:31;;;;;;;6.97;3.50;;;20.00;43.90;;;;;;5018492;28;20053;-45
2023/06/07 02:59:59;;;;;;;8.43;3.25;;;19.90;44.40;;;;;;5011984;28;20053;-49
2023/06/07 03:02:26;;;;;;;6.75;3.45;;;19.90;44.70;;;;;;5008466;28;20060;-48
2023/06/07 03:04:55;;;;;;;9.98;3.28;;;19.90;44.70;;;;;;5019821;28;20061;-48
2023/06/07 03:07:24;;;;;;;5.78;3.60;;;19.80;45.10;;;;;;5013603;28;20406;-45
2023/06/07 03:09:51;;;;;;;5.07;3.03;;;19.80;45.10;;;;;;5019181;28;20065;-44
2023/06/07 03:12:18;;;;;;;9.15;4.28;;;19.70;44.80;;;;;;5016250;28;20046;-44
2023/06/07 03:14:46;;;;;;;3.55;3.03;;;19.70;44.40;;;;;;5015692;28;20068;-48
2023/06/07 03:17:14;;;;;;;4.75;3.08;;;19.70;45.00;;;;;;5019128;28;20049;-47
2023/06/07 03:19:42;;;;;;;4.10;3.05;;;19.70;44.70;;;;;;5019788;28;20057;-47
2023/06/07 03:22:09;;;;;;;5.38;2.88;;;19.70;44.90;;;;;;5015894;28;20056;-45
2023/06/07 03:24:38;;;;;;;4.47;2.80;;;19.70;45.00;;;;;;5016214;28;20080;-48
2023/06/07 03:27:08;;;;;;;5.90;2.97;;;19.80;45.00;;;;;;5014969;28;20049;-47
2023/06/07 03:29:35;;;;;;;4.30;2.85;;;19.70;45.00;;;;;;5019714;28;20049;-55
2023/06/07 03:32:03;;;;;;;4.22;3.08;;;19.80;45.20;;;;;;5018081;28;20053;-53
2023/06/07 03:34:33;;;;;;;5.60;3.22;;;19.80;45.20;;;;;;5016937;28;20062;-55
2023/06/07 03:37:00;;;;;;;4.68;3.13;;;19.80;45.10;;;;;;5015690;28;20485;-55
2023/06/07 03:39:27;;;;;;;4.25;3.20;;;19.80;45.10;;;;;;5019114;28;20057;-56
2023/06/07 03:41:56;;;;;;;4.70;3.50;;;19.80;45.20;;;;;;5017886;28;20049;-54
2023/06/07 03:44:23;;;;;;;5.32;2.90;;;19.80;45.40;;;;;;5014392;28;20056;-51
2023/06/07 03:46:50;;;;;;;3.55;2.80;;;19.80;45.50;;;;;;5018011;28;20057;-54
2023/06/07 03:49:18;;;;;;;7.90;3.35;;;19.80;45.60;;;;;;5020571;28;20053;-52
2023/06/07 03:51:45;;;;;;;5.07;3.25;;;19.80;45.60;;;;;;5017166;28;20050;-52
2023/06/07 03:54:14;;;;;;;5.95;3.40;;;19.80;45.60;;;;;;5016697;28;20053;-56
2023/06/07 03:56:41;;;;;;;6.05;3.40;;;19.70;45.60;;;;;;5016812;28;20065;-56
2023/06/07 03:59:11;;;;;;;6.30;3.60;;;19.80;45.80;;;;;;5015762;28;20057;-52
2023/06/07 04:01:38;;;;;;;6.28;3.65;;;19.80;46.00;;;;;;5015375;28;20066;-54
2023/06/07 04:04:06;;;;;;;3.95;2.88;;;19.70;46.60;;;;;;5018876;28;20057;-51
2023/06/07 04:06:34;;;;;;;7.00;4.22;;;19.70;46.70;;;;;;5015955;28;20056;-53
2023/06/07 04:09:02;;;;;;;5.78;3.63;;;19.70;46.70;;;;;;5014769;28;20049;-54
2023/06/07 04:11:30;;;;;;;6.90;3.83;;;19.70;46.90;;;;;;5017230;28;20053;-56
2023/06/07 04:13:57;;;;;;;5.35;3.72;;;19.60;47.10;;;;;;5018204;28;20058;-56
2023/06/07 04:16:25;;;;;;;7.63;4.15;;;19.60;47.10;;;;;;5012081;28;20057;-54
2023/06/07 04:18:53;;;;;;;5.90;3.97;;;19.60;47.10;;;;;;5011818;28;20393;-55
2023/06/07 04:21:20;;;;;;;5.28;3.35;;;19.60;46.80;;;;;;5018529;28;20053;-56
2023/06/07 04:23:47;;;;;;;6.47;3.67;;;19.60;46.70;;;;;;5013812;28;20045;-55
2023/06/07 04:26:18;;;;;;;7.97;4.30;;;19.60;47.00;;;;;;5013334;28;20498;-52
2023/06/07 04:28:45;;;;;;;7.72;3.72;;;19.60;47.80;;;;;;5015223;28;20061;-55
2023/06/07 04:31:13;;;;;;;5.72;3.88;;;19.60;47.90;;;;;;5008699;28;20060;-56
2023/06/07 04:33:41;;;;;;;6.90;3.67;;;19.60;48.30;;;;;;5011778;28;20058;-54
2023/06/07 04:36:10;;;;;;;7.10;4.20;;;19.60;48.40;;;;;;5018336;28;20052;-55
2023/06/07 04:38:38;;;;;;;7.53;3.95;;;19.60;48.10;;;;;;5020391;28;20060;-45
2023/06/07 04:41:06;;;;;;;5.82;3.50;;;19.60;47.60;;;;;;5020020;28;20053;-48
2023/06/07 04:43:35;;;;;;;6.10;3.75;;;19.60;47.60;;;;;;5014957;28;20053;-47
2023/06/07 04:46:03;;;;;;;6.10;2.78;;;19.60;47.70;;;;;;5015962;28;20076;-45
2023/06/07 04:48:31;;;;;;;7.95;3.22;;;19.60;48.00;;;;;;5010293;28;20546;-45
2023/06/07 04:51:04;;;;;;;3.80;2.88;;;19.60;48.30;;;;;;5016469;28;20068;-49
2023/06/07 04:53:34;;;;;;;4.90;3.25;;;19.60;48.40;;;;;;5016125;28;20075;-46
2023/06/07 04:56:02;;;;;;;5.45;3.03;;;19.60;48.40;;;;;;5015918;28;20060;-49
2023/06/07 04:58:29;;;;;;;6.63;3.08;;;19.60;48.60;;;;;;5010920;28;20493;-46
2023/06/07 05:00:57;;;;;;;6.90;4.20;;;19.60;48.70;;;;;;5012903;28;20497;-45
2023/06/07 05:03:24;;;;;;;6.13;3.70;;;19.70;49.70;;;;;;5016259;28;20061;-47
2023/06/07 05:05:52;;;;;;;7.32;4.30;;;19.60;50.00;;;;;;5015246;28;20057;-47
2023/06/07 05:08:23;;;;;;;7.43;4.40;;;19.60;50.00;;;;;;5012827;28;20073;-47
2023/06/07 05:10:50;;;;;;;5.03;3.70;;;19.50;50.10;;;;;;5016800;28;20056;-49
2023/06/07 05:13:24;;;;;;;8.30;4.25;;;19.50;50.00;;;;;;5016471;28;20531;-47
2023/06/07 05:15:52;;;;;;;4.25;3.63;;;19.40;50.10;;;;;;5014591;28;20421;-47
2023/06/07 05:18:20;;;;;;;8.60;4.32;;;19.30;50.10;;;;;;5011209;28;20065;-46
2023/06/07 05:20:47;;;;;;;5.85;4.07;;;19.20;50.00;;;;;;5017009;28;20060;-46
2023/06/07 05:23:16;;;;;;;6.57;3.30;;;19.20;50.20;;;;;;5015582;28;20405;-49
2023/06/07 05:25:47;;;;;;;11.40;4.15;;;19.20;50.00;;;;;;5012480;28;20049;-48
2023/06/07 05:28:16;;;;;;;5.80;3.60;;;19.10;50.30;;;;;;5009456;28;20046;-46
2023/06/07 05:30:43;;;;;;;5.07;3.47;;;19.10;49.80;;;;;;5009090;28;20061;-49
2023/06/07 05:33:10;;;;;;;6.20;3.20;;;19.10;50.00;;;;;;5017764;28;20061;-46
2023/06/07 05:35:37;;;;;;;10.73;3.40;;;19.20;50.20;;;;;;5014984;28;20058;-46
2023/06/07 05:38:05;;;;;;;4.38;3.10;;;19.20;50.30;;;;;;5012422;28;20053;-49
2023/06/07 05:40:32;;;;;;;5.53;3.33;;;19.20;50.40;;;;;;5008594;28;20053;-54
2023/06/07 05:43:00;;;;;;;4.15;3.30;;;19.20;50.40;;;;;;5017804;28;20045;-52
2023/06/07 05:45:28;;;;;;;5.40;3.72;;;19.20;50.50;;;;;;5017372;28;20057;-55
2023/06/07 05:47:55;;;;;;;10.77;3.80;;;19.20;50.60;;;;;;5015668;28;20073;-50
2023/06/07 05:50:23;;;;;;;6.57;3.63;;;19.30;50.70;;;;;;5014309;28;20060;-53
2023/06/07 05:52:56;;;;;;;4.13;3.00;;;19.30;50.70;;;;;;5013185;28;20054;-53
2023/06/07 05:55:24;;;;;;;5.55;4.00;;;19.30;50.60;;;;;;5013908;28;20060;-55
2023/06/07 05:57:52;;;;;;;5.75;3.72;;;19.30;50.70;;;;;;5017591;28;20053;-55
2023/06/07 06:00:21;;;;;;;6.20;3.80;;;19.30;50.70;;;;;;5014838;28;20065;-55
2023/06/07 06:02:49;;;;;;;5.13;3.72;;;19.30;50.70;;;;;;5010066;28;20054;-52
2023/06/07 06:05:17;;;;;;;7.70;3.92;;;19.30;51.20;;;;;;5012258;28;20509;-54
2023/06/07 06:07:44;;;;;;;8.07;4.00;;;19.40;51.60;;;;;;5015854;28;20558;-55
2023/06/07 06:10:12;;;;;;;7.88;4.50;;;19.40;51.60;;;;;;5015557;28;20064;-53
2023/06/07 06:12:39;;;;;;;5.32;4.10;;;19.30;51.50;;;;;;5013018;28;20529;-54
2023/06/07 06:15:07;;;;;;;8.80;3.95;;;19.30;52.10;;;;;;5012078;28;20053;-53
2023/06/07 06:17:36;;;;;;;10.20;4.53;;;19.30;52.40;;;;;;5018860;28;20056;-51
2023/06/07 06:20:04;;;;;;;6.38;4.20;;;19.30;52.30;;;;;;5017247;28;20061;-55
2023/06/07 06:22:31;;;;;;;6.65;4.30;;;19.20;52.30;;;;;;5014931;28;20049;-51
2023/06/07 06:24:58;;;;;;;5.47;4.00;;;19.20;52.40;;;;;;5016223;28;20049;-54
2023/06/07 06:27:25;;;;;;;7.38;4.47;;;19.20;52.70;;;;;;5017358;28;20052;-54
2023/06/07 06:29:53;;;;;;;7.95;4.40;;;19.10;52.80;;;;;;5001270;28;20060;-49
2023/06/07 06:32:20;;;;;;;9.07;4.60;;;19.10;53.00;;;;;;5006636;28;20065;-54
2023/06/07 06:34:49;;;;;;;8.88;4.32;;;19.10;53.40;;;;;;5015318;28;20056;-53
2023/06/07 06:37:16;;;;;;;8.10;4.55;;;19.00;53.70;;;;;;5011950;28;20049;-54
2023/06/07 06:39:43;;;;;;;7.25;5.05;;;19.00;53.70;;;;;;5011000;28;20513;-44
2023/06/07 06:42:11;;;;;;;9.45;5.00;;;19.00;53.80;;;;;;5013347;28;20493;-45
2023/06/07 06:44:39;;;;;;;7.45;5.10;;;18.90;53.50;;;;;;5013479;28;20615;-48
2023/06/07 06:47:07;;;;;;;10.23;5.18;;;18.90;53.60;;;;;;5007777;28;20061;-46
2023/06/07 06:49:35;;;;;;;8.32;4.90;;;18.90;53.50;;;;;;5017784;28;20485;-45
2023/06/07 06:52:05;;;;;;;9.52;5.28;;;18.90;53.60;;;;;;5012422;28;20064;-48
2023/06/07 06:54:33;;;;;;;9.07;5.28;;;18.90;53.60;;;;;;5013069;28;20052;-47
2023/06/07 06:57:01;;;;;;;8.45;5.00;;;18.90;53.50;;;;;;5015447;28;20052;-49
2023/06/07 06:59:29;;;;;;;10.80;4.90;;;18.90;53.30;;;;;;5014556;28;20065;-45
2023/06/07 07:01:58;;;;;;;11.38;5.75;;;18.90;53.10;;;;;;5016575;28;20064;-46
2023/06/07 07:04:25;;;;;;;8.80;5.72;;;18.90;53.10;;;;;;5014414;28;20054;-45
2023/06/07 07:06:53;;;;;;;6.43;5.00;;;18.90;53.10;;;;;;5016645;28;20049;-47
2023/06/07 07:09:21;;;;;;;7.05;4.78;;;18.90;53.00;;;;;;5015647;28;20403;-47
2023/06/07 07:11:48;;;;;;;10.65;5.15;;;19.00;53.00;;;;;;5013164;28;20057;-47
2023/06/07 07:14:16;;;;;;;8.20;4.50;;;19.00;53.00;;;;;;5020438;28;20049;-48
2023/06/07 07:16:43;;;;;;;8.98;4.82;;;19.00;52.90;;;;;;5008248;28;20482;-44
2023/06/07 07:19:10;;;;;;;5.28;4.00;;;19.10;52.90;;;;;;5008992;28;20045;-46
2023/06/07 07:21:38;;;;;;;4.47;3.50;;;19.10;52.90;;;;;;5014520;28;20053;-51
2023/06/07 07:24:06;;;;;;;6.00;4.20;;;19.20;53.20;;;;;;5016370;28;20045;-48
2023/06/07 07:26:35;;;;;;;9.32;3.72;;;19.20;53.20;;;;;;5013061;28;20050;-48
2023/06/07 07:29:02;;;;;;;7.65;4.40;;;19.30;53.20;;;;;;5014108;28;20061;-45
2023/06/07 07:31:33;;;;;;;7.57;5.00;;;19.30;53.20;;;;;;5018852;28;20041;-48
2023/06/07 07:34:00;;;;;;;7.80;4.88;;;19.40;53.10;;;;;;5013414;28;20050;-45
2023/06/07 07:36:28;;;;;;;10.23;5.72;;;19.40;53.00;;;;;;5016941;28;20057;-47
2023/06/07 07:38:57;;;;;;;8.57;5.82;;;19.50;53.10;;;;;;5008386;28;20057;-45
2023/06/07 07:41:25;;;;;;;9.40;5.50;;;19.40;53.30;;;;;;5015594;28;20061;-49
2023/06/07 07:43:54;;;;;;;10.65;6.47;;;19.50;53.40;;;;;;5014581;28;20064;-44
2023/06/07 07:46:21;;;;;;;9.65;6.00;;;19.50;53.40;;;;;;5017310;28;20057;-50
2023/06/07 07:48:48;;;;;;;9.55;6.05;;;19.50;53.50;;;;;;5014799;28;20061;-49
2023/06/07 07:51:16;;;;;;;11.57;6.90;;;19.50;53.70;;;;;;5012037;28;20045;-48
2023/06/07 07:53:43;;;;;;;8.20;5.57;;;19.50;53.70;;;;;;5011994;28;20049;-47
2023/06/07 07:56:11;;;;;;;8.13;4.90;;;19.50;53.70;;;;;;5014839;28;20041;-44
2023/06/07 07:58:38;;;;;;;9.52;5.63;;;19.50;53.60;;;;;;5005048;28;20066;-46
2023/06/07 08:01:08;;;;;;;11.57;6.55;;;19.60;53.80;;;;;;5011055;28;20068;-56
2023/06/07 08:03:36;;;;;;;12.55;6.25;;;19.60;53.80;;;;;;5012712;28;20060;-56
2023/06/07 08:06:03;;;;;;;10.98;6.28;;;19.60;53.70;;;;;;5015969;28;20053;-52
2023/06/07 08:08:31;;;;;;;10.70;5.70;;;19.60;53.70;;;;;;5013671;28;20061;-54
2023/06/07 08:11:00;;;;;;;11.63;6.28;;;19.70;53.80;;;;;;5018061;28;20053;-53
2023/06/07 08:13:28;;;;;;;11.85;6.40;;;19.80;53.60;;;;;;5016723;28;20414;-56
2023/06/07 08:15:56;;;;;;;8.20;5.38;;;19.80;53.60;;;;;;5013119;28;20521;-53
2023/06/07 08:18:24;;;;;;;12.02;6.78;;;19.80;53.70;;;;;;5017652;28;20493;-53
2023/06/07 08:20:51;;;;;;;12.88;6.18;;;19.80;53.60;;;;;;5016577;28;20049;-49
2023/06/07 08:23:18;;;;;;;15.23;6.70;;;19.90;53.60;;;;;;5013380;28;20083;-55
2023/06/07 08:25:46;;;;;;;13.90;6.95;;;19.90;53.80;;;;;;5014337;28;20061;-52
2023/06/07 08:28:13;;;;;;;11.95;6.55;;;20.00;54.50;;;;;;5016090;28;20425;-56
2023/06/07 08:30:41;;;;;;;12.35;6.78;;;20.00;54.00;;;;;;5011518;28;20057;-49
2023/06/07 08:33:08;;;;;;;12.80;6.50;;;20.00;54.40;;;;;;5001302;28;20060;-48
2023/06/07 08:35:37;;;;;;;13.70;8.20;;;20.10;54.30;;;;;;5015786;28;20046;-50
2023/06/07 08:38:04;;;;;;;10.68;7.35;;;20.20;54.40;;;;;;5011352;28;20057;-50
2023/06/07 08:43:02;;;;;;;9.20;6.35;;;20.30;54.30;;;;;;5289690;23;20056;-87
2023/06/07 08:45:30;;;;;;;9.82;6.30;;;20.30;54.50;;;;;;5013560;28;20416;-85
2023/06/07 08:47:58;;;;;;;8.98;6.43;;;20.40;53.90;;;;;;5008853;28;20408;-87
2023/06/07 08:50:27;;;;;;;12.27;7.20;;;20.50;53.60;;;;;;5011648;28;20050;-85
2023/06/07 08:52:58;;;;;;;11.77;6.30;;;20.60;53.90;;;;;;5009531;28;20049;-83
2023/06/07 08:55:27;;;;;;;14.57;7.20;;;20.70;53.90;;;;;;5015025;28;20041;-83
2023/06/07 08:57:55;;;;;;;11.20;7.30;;;20.70;53.90;;;;;;5010118;28;20058;-83
2023/06/07 09:01:27;;;;;;;10.63;6.55;;;20.80;53.90;;;;;;5012910;28;20052;-82
2023/06/07 09:03:57;;;;;;;10.45;6.88;;;21.00;54.10;;;;;;4970675;28;20090;-83
2023/06/07 09:06:25;;;;;;;12.15;7.38;;;21.00;53.70;;;;;;5002576;28;20054;-83
2023/06/07 09:08:54;;;;;;;13.02;7.22;;;21.10;53.50;;;;;;5011899;28;20058;-84
2023/06/07 09:14:02;;;;;;;13.68;8.30;;;21.20;54.30;;;;;;5363669;23;20044;-51
2023/06/07 09:16:29;;;;;;;19.05;7.78;;;21.30;54.00;;;;;;5004871;28;20049;-47
2023/06/07 09:18:56;;;;;;;15.05;7.75;;;21.40;53.90;;;;;;5009041;28;20516;-47
2023/06/07 09:21:26;;;;;;;11.50;8.00;;;21.50;54.10;;;;;;5016136;28;20064;-52
2023/06/07 09:23:56;;;;;;;11.77;6.28;;;21.60;53.60;;;;;;5013355;28;20054;-54
2023/06/07 09:26:23;;;;;;;12.60;7.18;;;21.70;53.30;;;;;;5013043;28;20507;-56
2023/06/07 09:28:51;;;;;;;11.55;7.22;;;21.80;53.00;;;;;;5016296;28;20781;-57
2023/06/07 09:31:33;;;;;;;9.35;7.25;;;21.80;53.10;;;;;;5014414;28;20405;-51
2023/06/07 09:34:20;;;;;;;10.10;6.53;;;21.90;52.70;;;;;;5012371;28;20485;-51
2023/06/07 09:36:54;;;;;;;9.23;6.45;;;21.90;51.70;;;;;;5005184;28;20644;-55
2023/06/07 09:41:58;;;;;;;10.13;6.63;;;22.10;52.30;;;;;;4863989;26;20300;-88
2023/06/07 09:44:29;;;;;;;10.07;6.85;;;22.10;52.20;;;;;;4995378;28;20057;-89
2023/06/07 09:46:57;;;;;;;10.63;6.18;;;22.10;52.20;;;;;;4996789;28;20053;-87
2023/06/07 09:49:28;;;;;;;12.20;6.50;;;22.20;52.10;;;;;;4994596;28;20065;-87
2023/06/07 09:52:01;;;;;;;10.27;5.90;;;22.20;52.20;;;;;;5000267;28;20058;-87
2023/06/07 09:54:54;;;;;;;12.35;7.03;;;22.20;52.30;;;;;;4995711;28;20081;-88
2023/06/07 09:57:33;;;;;;;10.57;6.47;;;22.30;52.50;;;;;;4997068;28;20064;-87
2023/06/07 10:00:13;;;;;;;11.13;6.97;;;22.30;52.40;;;;;;5008702;28;20207;-87
2023/06/07 10:02:42;;;;;;;9.93;6.80;;;22.40;52.30;;;;;;4999989;28;20061;-88
2023/06/07 10:05:09;;;;;;;12.13;6.65;;;22.50;52.20;;;;;;5001315;28;20054;-87
2023/06/07 10:07:40;;;;;;;13.73;7.15;;;22.50;52.20;;;;;;4997052;28;20609;-87
2023/06/07 10:10:14;;;;;;;11.25;6.78;;;22.60;52.00;;;;;;4997626;28;20486;-87
2023/06/07 10:12:43;;;;;;;;;;;22.60;52.00;;;;;;5001073;28;20061;-87
2023/06/07 10:15:12;;;;;;;8.30;5.30;;;22.70;51.60;;;;;;4994807;28;19926;-87
2023/06/07 10:17:49;;;;;;;13.13;6.90;;;22.80;51.50;;;;;;4994741;28;20057;-86
2023/06/07 10:22:59;;;;;;;12.30;7.43;;;22.90;50.70;;;;;;5132253;23;20072;-43
2023/06/07 10:25:31;;;;;;;10.18;6.20;;;22.90;50.80;;;;;;5034159;28;20049;-46
2023/06/07 10:28:13;;;;;;;11.88;6.85;;;22.90;50.40;;;;;;5028193;28;20522;-48
2023/06/07 10:30:45;;;;;;;10.57;6.78;;;23.00;51.20;;;;;;5036210;28;20061;-55
2023/06/07 10:33:15;;;;;;;14.27;6.57;;;23.00;50.90;;;;;;5033715;28;20447;-48
2023/06/07 10:35:42;;;;;;;10.07;6.10;;;23.10;50.60;;;;;;5035874;28;20080;-51
2023/06/07 10:38:10;;;;;;;8.02;5.15;;;23.10;49.80;;;;;;5027592;28;20381;-50
2023/06/07 10:40:38;;;;;;;7.93;5.22;;;23.20;49.80;;;;;;5034348;28;20060;-52
2023/06/07 10:43:07;;;;;;;9.68;5.30;;;23.20;49.70;;;;;;5037410;28;20057;-50
2023/06/07 10:45:35;;;;;;;9.38;4.80;;;23.30;49.40;;;;;;5037230;28;20044;-50
2023/06/07 10:48:32;;;;;;;5.22;3.95;;;23.30;49.20;;;;;;5039069;28;20413;-50
2023/06/07 10:50:59;;;;;;;8.32;5.07;;;23.40;49.10;;;;;;5040355;28;20064;-51
2023/06/07 10:53:48;;;;;;;8.43;5.00;;;23.40;48.80;;;;;;5038361;28;20053;-52
2023/06/07 10:56:32;;;;;;;9.65;5.60;;;23.50;49.10;;;;;;5037970;28;20048;-53
2023/06/07 10:59:21;;;;;;;8.63;5.80;;;23.60;48.90;;;;;;5038561;28;20052;-52
2023/06/07 11:01:50;;;;;;;10.27;6.00;;;23.70;49.50;;;;;;5038033;28;21513;-54
2023/06/07 11:04:56;;;;;;;9.77;5.80;;;23.70;48.20;;;;;;5040927;28;20053;-55
2023/06/07 11:07:25;;;;;;;8.32;5.45;;;23.70;48.60;;;;;;5039441;28;20061;-55
2023/06/07 11:10:25;;;;;;;6.18;4.80;;;23.80;48.10;;;;;;5041134;28;20503;-53
2023/06/07 11:12:57;;;;;;;7.47;5.05;;;23.80;48.10;;;;;;5042201;28;20491;-47
2023/06/07 11:15:30;;;;;;;6.07;4.75;;;23.90;48.20;;;;;;5042087;28;20053;-53
2023/06/07 11:17:59;;;;;;;9.88;5.32;;;23.90;48.20;;;;;;5042470;28;20064;-54
2023/06/07 11:20:50;;;;;;;9.55;5.20;;;24.00;48.10;;;;;;5041852;28;20061;-53
2023/06/07 11:23:27;;;;;;;7.78;4.50;;;24.00;48.30;;;;;;5020017;28;20053;-55
2023/06/07 11:25:58;;;;;;;6.60;4.43;;;24.10;47.80;;;;;;5021675;28;20050;-53
2023/06/07 11:28:27;;;;;;;6.28;4.72;;;24.10;47.70;;;;;;5022730;28;20053;-54
2023/06/07 11:30:56;;;;;;;5.82;3.90;;;24.20;47.30;;;;;;5019824;28;20049;-51
2023/06/07 11:33:23;;;;;;;11.13;4.90;;;24.20;47.40;;;;;;5020517;28;20065;-52
2023/06/07 11:35:51;;;;;;;7.20;4.75;;;24.20;47.40;;;;;;5015742;28;20060;-49
2023/06/07 11:38:19;;;;;;;8.93;5.07;;;24.30;47.20;;;;;;5016129;28;20049;-48
2023/06/07 11:40:47;;;;;;;6.25;4.78;;;24.30;46.80;;;;;;5019044;28;20527;-53
2023/06/07 11:43:16;;;;;;;8.95;4.72;;;24.40;46.90;;;;;;5018303;28;20045;-52
2023/06/07 11:45:44;;;;;;;8.20;5.38;;;24.40;46.70;;;;;;5018920;28;20076;-53
2023/06/07 11:48:13;;;;;;;12.32;5.35;;;24.50;46.60;;;;;;5013369;28;20052;-55
2023/06/07 11:50:43;;;;;;;7.97;5.05;;;24.50;46.60;;;;;;5017363;28;20440;-51
2023/06/07 11:53:11;;;;;;;9.90;5.25;;;24.50;46.80;;;;;;5015758;28;20073;-56
2023/06/07 11:55:38;;;;;;;7.57;4.90;;;24.50;47.40;;;;;;5015754;28;20411;-51
2023/06/07 11:58:07;;;;;;;9.07;5.80;;;24.50;47.80;;;;;;5011403;28;20501;-53
2023/06/07 12:00:36;;;;;;;9.88;5.75;;;24.40;48.50;;;;;;5013375;28;20053;-53
2023/06/07 12:03:05;;;;;;;11.70;7.68;;;24.40;49.00;;;;;;5011026;28;20053;-54
2023/06/07 12:05:35;;;;;;;12.30;8.27;;;24.40;49.40;;;;;;5009443;28;20046;-54
2023/06/07 12:08:04;;;;;;;16.77;10.00;;;24.30;49.90;;;;;;5007777;28;20061;-53
2023/06/07 12:10:33;;;;;;;16.98;10.38;;;24.20;50.20;;;;;;5009234;28;20061;-51
2023/06/07 12:13:11;;;;;;;20.77;10.88;;;24.10;50.70;;;;;;5010525;28;20059;-49
2023/06/07 12:15:46;;;;;;;17.33;11.02;;;24.00;51.50;;;;;;5010607;28;20056;-53
2023/06/07 12:18:14;;;;;;;15.52;10.23;;;23.90;52.20;;;;;;5010780;28;20072;-51
2023/06/07 12:20:44;;;;;;;18.25;11.50;;;23.80;52.30;;;;;;5010982;28;20064;-54
2023/06/07 12:23:12;;;;;;;19.48;11.95;;;23.70;53.00;;;;;;5011487;28;20072;-54
2023/06/07 12:25:41;;;;;;;24.02;12.48;;;23.60;53.30;;;;;;5014828;28;20056;-53
2023/06/07 12:28:11;;;;;;;24.42;13.25;;;23.60;53.90;;;;;;5010848;28;20077;-53
2023/06/07 12:30:41;;;;;;;18.98;11.82;;;23.60;53.10;;;;;;5015429;28;20065;-52
2023/06/07 12:33:14;;;;;;;16.70;10.93;;;23.60;53.30;;;;;;5016473;28;20531;-55
2023/06/07 12:35:50;;;;;;;15.65;10.98;;;23.50;53.80;;;;;;5010853;28;20062;-56
2023/06/07 12:38:21;;;;;;;21.20;13.23;;;23.50;53.80;;;;;;5011069;28;20069;-55
2023/06/07 12:40:48;;;;;;;18.10;12.82;;;23.50;53.40;;;;;;5016615;28;20059;-52
2023/06/07 12:43:15;;;;;;;15.32;10.82;;;23.40;53.40;;;;;;5015052;28;20076;-55
2023/06/07 12:45:42;;;;;;;21.25;11.90;;;23.40;53.20;;;;;;5012827;28;20691;-56
2023/06/07 12:48:10;;;;;;;17.95;12.02;;;23.40;53.10;;;;;;5016462;28;20064;-56
2023/06/07 12:50:37;;;;;;;17.25;11.13;;;23.30;53.30;;;;;;5012051;28;20060;-53
2023/06/07 12:53:05;;;;;;;16.45;11.00;;;23.30;53.30;;;;;;5016630;28;20062;-53
2023/06/07 12:55:33;;;;;;;18.85;11.32;;;23.30;53.30;;;;;;5012137;28;20446;-55
2023/06/07 12:58:01;;;;;;;16.38;11.45;;;23.30;53.40;;;;;;5016841;28;20401;-54
2023/06/07 13:00:28;;;;;;;19.95;13.38;;;23.30;53.80;;;;;;5017898;28;20052;-44
2023/06/07 13:02:55;;;;;;;22.15;14.10;;;23.30;54.30;;;;;;5018227;28;20056;-42
2023/06/07 13:05:22;;;;;;;20.80;13.65;;;23.30;54.30;;;;;;5017412;28;20547;-46